createdAt,value
2018-02-03T00:00:44.470Z,88.57
2018-02-03T00:01:54.519Z,88.48
2018-02-03T00:03:04.576Z,88.48
2018-02-03T00:04:14.631Z,88.57
2018-02-03T00:05:24.690Z,88.67
2018-02-03T00:06:34.728Z,88.57
2018-02-03T00:07:44.810Z,88.76
2018-02-03T00:08:54.851Z,88.48
2018-02-03T00:10:04.957Z,88.39
2018-02-03T00:11:14.744Z,88.86
2018-02-03T00:12:24.780Z,88.76
2018-02-03T00:13:34.586Z,88.76
2018-02-03T00:14:44.639Z,88.67
2018-02-03T00:15:54.693Z,88.86
2018-02-03T00:17:04.745Z,88.86
2018-02-03T00:18:14.789Z,88.57
2018-02-03T00:19:24.821Z,88.67
2018-02-03T00:20:34.853Z,88.76
2018-02-03T00:21:44.908Z,88.39
2018-02-03T00:22:54.689Z,88.39
2018-02-03T00:24:04.488Z,88.76
2018-02-03T00:25:14.535Z,88.57
2018-02-03T00:26:24.571Z,88.48
2018-02-03T00:27:34.421Z,88.76
2018-02-03T00:28:44.456Z,88.76
2018-02-03T00:29:54.237Z,88.67
2018-02-03T00:31:04.010Z,88.48
2018-02-03T00:32:13.565Z,88.67
2018-02-03T00:33:23.608Z,88.29
2018-02-03T00:34:33.664Z,88.76
2018-02-03T00:35:43.199Z,88.76
2018-02-03T00:36:53.245Z,88.57
2018-02-03T00:38:03.289Z,88.67
2018-02-03T00:39:13.318Z,88.76
2018-02-03T00:40:23.098Z,88.57
2018-02-03T00:41:33.149Z,88.76
2018-02-03T00:42:43.201Z,88.67
2018-02-03T00:43:52.988Z,88.86
2018-02-03T00:45:03.035Z,88.76
2018-02-03T00:46:13.086Z,88.76
2018-02-03T00:47:23.131Z,88.76
2018-02-03T00:48:33.178Z,88.76
2018-02-03T00:49:42.959Z,88.39
2018-02-03T00:50:52.734Z,88.48
2018-02-03T00:52:02.790Z,88.76
2018-02-03T00:53:12.582Z,88.48
2018-02-03T00:54:22.375Z,88.57
2018-02-03T00:55:32.421Z,88.76
2018-02-03T00:56:42.471Z,88.57
2018-02-03T00:57:52.521Z,88.48
2018-02-03T00:59:02.726Z,88.76
2018-02-03T01:00:12.768Z,88.76
2018-02-03T01:01:22.556Z,88.57
2018-02-03T01:02:32.612Z,88.57
2018-02-03T01:03:42.667Z,88.76
2018-02-03T01:04:52.700Z,88.48
2018-02-03T01:06:02.752Z,88.39
2018-02-03T01:07:12.799Z,88.67
2018-02-03T01:08:22.898Z,88.39
2018-02-03T01:09:32.956Z,88.29
2018-02-03T01:10:42.753Z,88.76
2018-02-03T01:11:52.804Z,88.76
2018-02-03T01:13:02.603Z,88.76
2018-02-03T01:14:12.125Z,88.67
2018-02-03T01:15:22.181Z,88.76
2018-02-03T01:16:32.006Z,88.67
2018-02-03T01:17:42.034Z,88.57
2018-02-03T01:18:52.080Z,88.76
2018-02-03T01:20:02.133Z,88.76
2018-02-03T01:21:12.190Z,88.57
2018-02-03T01:22:22.240Z,88.57
2018-02-03T01:23:32.304Z,88.67
2018-02-03T01:24:42.086Z,88.95
2018-02-03T01:25:51.927Z,88.76
2018-02-03T01:27:01.987Z,88.67
2018-02-03T01:28:11.521Z,88.95
2018-02-03T01:29:21.577Z,88.95
2018-02-03T01:30:31.363Z,88.95
2018-02-03T01:31:41.418Z,88.76
2018-02-03T01:32:51.477Z,88.86
2018-02-03T01:34:01.272Z,88.86
2018-02-03T01:35:11.062Z,88.76
2018-02-03T01:36:21.178Z,88.86
2018-02-03T01:37:30.964Z,88.76
2018-02-03T01:38:41.244Z,88.95
2018-02-03T01:39:51.286Z,88.95
2018-02-03T01:41:01.336Z,88.95
2018-02-03T01:42:11.379Z,88.95
2018-02-03T01:43:21.422Z,88.86
2018-02-03T01:44:31.458Z,88.53
2018-02-03T01:45:41.511Z,88.81
2018-02-03T01:46:51.304Z,88.62
2018-02-03T01:48:01.091Z,89
2018-02-03T01:49:10.927Z,88.81
2018-02-03T01:50:20.965Z,88.76
2018-02-03T01:51:31.058Z,89.14
2018-02-03T01:52:41.108Z,88.86
2018-02-03T01:53:51.143Z,88.57
2018-02-03T01:55:00.932Z,88.76
2018-02-03T01:56:10.717Z,88.76
2018-02-03T01:57:20.494Z,88.39
2018-02-03T01:58:30.282Z,88.57
2018-02-03T01:59:40.328Z,88.57
2018-02-03T02:00:50.370Z,88.57
2018-02-03T02:02:00.231Z,88.39
2018-02-03T02:03:10.283Z,88.57
2018-02-03T02:04:20.323Z,88.57
2018-02-03T02:05:30.355Z,88.39
2018-02-03T02:06:40.148Z,88.39
2018-02-03T02:07:49.932Z,88.39
2018-02-03T02:08:59.973Z,88.86
2018-02-03T02:10:09.758Z,88.39
2018-02-03T02:11:19.811Z,88.29
2018-02-03T02:12:29.867Z,88.76
2018-02-03T02:13:39.916Z,88.76
2018-02-03T02:14:49.693Z,88.29
2018-02-03T02:15:59.743Z,88.39
2018-02-03T02:17:09.783Z,88.76
2018-02-03T02:18:19.895Z,88.76
2018-02-03T02:19:30.013Z,88.57
2018-02-03T02:20:39.845Z,88.57
2018-02-03T02:21:49.890Z,88.76
2018-02-03T02:22:59.956Z,88.57
2018-02-03T02:24:09.745Z,88.76
2018-02-03T02:25:19.804Z,88.76
2018-02-03T02:26:29.843Z,88.48
2018-02-03T02:27:39.621Z,88.76
2018-02-03T02:28:49.666Z,88.57
2018-02-03T02:29:59.514Z,89.05
2018-02-03T02:31:09.301Z,89.14
2018-02-03T02:32:19.338Z,89.14
2018-02-03T02:33:29.126Z,89.14
2018-02-03T02:34:38.910Z,89.14
2018-02-03T02:35:48.699Z,89.05
2018-02-03T02:36:58.485Z,89.14
2018-02-03T02:38:08.273Z,88.76
2018-02-03T02:39:19.395Z,88.57
2018-02-03T02:40:29.194Z,88.57
2018-02-03T02:41:39.280Z,88.76
2018-02-03T02:42:49.338Z,88.86
2018-02-03T02:43:59.461Z,88.57
2018-02-03T02:45:09.251Z,88.76
2018-02-03T02:46:19.304Z,88.76
2018-02-03T02:47:29.426Z,88.29
2018-02-03T02:48:39.491Z,88.71
2018-02-03T02:49:49.547Z,88.62
2018-02-03T02:50:59.331Z,88.67
2018-02-03T02:52:09.406Z,88.53
2018-02-03T02:53:19.592Z,88.81
2018-02-03T02:54:29.638Z,88.71
2018-02-03T02:55:39.711Z,88.62
2018-02-03T02:56:49.784Z,88.39
2018-02-03T02:57:59.816Z,88.81
2018-02-03T02:59:09.652Z,88.62
2018-02-03T03:00:19.435Z,88.62
2018-02-03T03:01:29.484Z,89.09
2018-02-03T03:02:39.535Z,88.62
2018-02-03T03:34:33.561Z,84.94
2018-02-03T03:35:43.601Z,84.84
2018-02-03T03:36:53.630Z,86.07
2018-02-03T03:38:03.666Z,86.93
2018-02-03T03:39:13.757Z,87.68
2018-02-03T03:40:23.860Z,88.63
2018-02-03T03:41:33.642Z,89.29
2018-02-03T03:42:43.699Z,89.77
2018-02-03T03:43:53.739Z,89.81
2018-02-03T03:45:03.530Z,89.53
2018-02-03T03:46:13.313Z,89.43
2018-02-03T03:47:22.847Z,89.91
2018-02-03T03:48:32.899Z,89.81
2018-02-03T03:49:42.928Z,89.91
2018-02-03T03:50:53.036Z,89.91
2018-02-03T03:52:03.082Z,89.58
2018-02-03T03:53:12.881Z,89.76
2018-02-03T03:54:22.916Z,89.67
2018-02-03T03:55:32.693Z,89.95
2018-02-03T03:56:42.755Z,89.95
2018-02-03T03:57:52.805Z,89.48
2018-02-03T03:59:02.592Z,89.81
2018-02-03T04:00:13.476Z,90
2018-02-03T04:01:23.521Z,89.62
2018-02-03T04:02:33.557Z,89.62
2018-02-03T04:03:43.340Z,89.24
2018-02-03T04:04:53.395Z,89.33
2018-02-03T04:06:03.174Z,89.43
2018-02-03T04:07:13.207Z,89.43
2018-02-03T04:08:23.006Z,89.24
2018-02-03T04:09:33.106Z,89.24
2018-02-03T04:10:43.177Z,89.24
2018-02-03T04:11:53.222Z,89.14
2018-02-03T04:13:03.283Z,89.43
2018-02-03T04:14:13.061Z,89.05
2018-02-03T04:15:23.112Z,88.9
2018-02-03T04:16:33.149Z,88.86
2018-02-03T04:17:43.197Z,89
2018-02-03T04:18:53.243Z,89
2018-02-03T04:20:03.027Z,89
2018-02-03T04:21:13.122Z,89.09
2018-02-03T04:22:23.213Z,88.9
2018-02-03T04:23:33.272Z,89
2018-02-03T04:24:42.796Z,89
2018-02-03T04:25:52.590Z,89
2018-02-03T04:27:03.640Z,89.09
2018-02-03T04:28:13.685Z,89
2018-02-03T04:29:23.730Z,89.09
2018-02-03T04:30:33.797Z,89
2018-02-03T04:31:43.329Z,89.09
2018-02-03T04:32:53.110Z,89
2018-02-03T04:34:02.896Z,89.09
2018-02-03T04:35:12.948Z,89.09
2018-02-03T04:36:22.734Z,89.09
2018-02-03T04:37:32.796Z,89.09
2018-02-03T04:38:42.577Z,89.09
2018-02-03T04:39:52.629Z,89.19
2018-02-03T04:41:02.671Z,89.19
2018-02-03T04:42:12.452Z,89
2018-02-03T04:43:22.254Z,89
2018-02-03T04:44:32.298Z,89.19
2018-02-03T04:45:42.092Z,89
2018-02-03T04:46:51.867Z,89.09
2018-02-03T04:48:01.655Z,89
2018-02-03T04:49:11.705Z,89.09
2018-02-03T04:50:21.751Z,89.09
2018-02-03T04:51:31.810Z,89
2018-02-03T04:52:41.598Z,89.28
2018-02-03T04:53:51.642Z,89
2018-02-03T04:55:01.679Z,88.9
2018-02-03T04:56:11.468Z,89.19
2018-02-03T04:57:21.505Z,89
2018-02-03T04:58:31.287Z,89.09
2018-02-03T04:59:41.321Z,89
2018-02-03T05:00:51.367Z,89.19
2018-02-03T05:02:01.201Z,88.81
2018-02-03T05:03:10.988Z,88.62
2018-02-03T05:04:20.775Z,89.28
2018-02-03T05:05:30.808Z,88.81
2018-02-03T05:06:40.854Z,89
2018-02-03T05:07:50.951Z,89.19
2018-02-03T05:09:00.728Z,89.19
2018-02-03T05:10:10.775Z,89.09
2018-02-03T05:11:20.805Z,88.81
2018-02-03T05:12:30.848Z,88.81
2018-02-03T05:13:40.895Z,89.28
2018-02-03T05:14:50.672Z,88.81
2018-02-03T05:16:00.699Z,89.19
2018-02-03T05:17:10.485Z,89
2018-02-03T05:18:20.287Z,89.19
2018-02-03T05:19:30.432Z,89
2018-02-03T05:20:40.465Z,89.09
2018-02-03T05:21:50.514Z,89.09
2018-02-03T05:23:00.563Z,88.9
2018-02-03T05:24:10.357Z,89.19
2018-02-03T05:25:20.151Z,89.14
2018-02-03T05:26:29.935Z,89.09
2018-02-03T05:27:39.714Z,88.85
2018-02-03T05:28:49.511Z,88.53
2018-02-03T05:29:59.284Z,89.14
2018-02-03T05:31:09.390Z,89.23
2018-02-03T05:32:19.491Z,89.19
2018-02-03T05:33:29.274Z,89.23
2018-02-03T05:34:39.318Z,89
2018-02-03T05:35:49.387Z,89
2018-02-03T05:36:59.439Z,89.19
2018-02-03T05:38:09.536Z,89
2018-02-03T05:39:19.594Z,88.9
2018-02-03T05:40:29.656Z,89
2018-02-03T05:41:39.706Z,89.47
2018-02-03T05:42:49.773Z,89.57
2018-02-03T05:43:59.813Z,89.28
2018-02-03T05:45:09.853Z,89.47
2018-02-03T05:46:19.901Z,89.28
2018-02-03T05:47:29.971Z,89
2018-02-03T05:48:39.811Z,89
2018-02-03T05:49:49.890Z,88.9
2018-02-03T05:50:59.938Z,89.19
2018-02-03T05:52:10.066Z,89.19
2018-02-03T05:53:19.850Z,89.19
2018-02-03T05:54:29.903Z,89.09
2018-02-03T05:55:39.957Z,89.09
2018-02-03T05:56:50.010Z,89
2018-02-03T05:57:59.796Z,89.19
2018-02-03T05:59:09.833Z,89.19
2018-02-03T06:00:19.714Z,89.09
2018-02-03T06:01:29.759Z,88.62
2018-02-03T06:02:39.542Z,88.71
2018-02-03T06:03:49.575Z,88.81
2018-02-03T06:04:58.838Z,88.34
2018-02-03T06:06:08.600Z,88.43
2018-02-03T06:07:18.646Z,88.43
2018-02-03T06:08:28.440Z,88.43
2018-02-03T06:09:38.210Z,89
2018-02-03T06:10:48.271Z,88.53
2018-02-03T06:11:58.109Z,88.62
2018-02-03T06:13:08.171Z,89
2018-02-03T06:14:18.232Z,89.09
2018-02-03T06:15:28.283Z,89
2018-02-03T06:16:38.328Z,89.47
2018-02-03T06:17:48.122Z,89.14
2018-02-03T06:18:57.894Z,89.14
2018-02-03T06:20:07.983Z,89.24
2018-02-03T06:21:17.776Z,89.14
2018-02-03T06:22:27.559Z,89.33
2018-02-03T06:23:37.600Z,89.14
2018-02-03T06:24:47.652Z,89.14
2018-02-03T06:25:57.434Z,89.43
2018-02-03T06:27:07.488Z,89.24
2018-02-03T06:28:17.535Z,88.95
2018-02-03T06:29:27.646Z,88.95
2018-02-03T06:30:37.435Z,89.14
2018-02-03T06:31:47.635Z,88.76
2018-02-03T06:32:57.482Z,89.05
2018-02-03T06:34:07.259Z,89.24
2018-02-03T06:35:17.073Z,89.14
2018-02-03T06:36:27.159Z,88.95
2018-02-03T06:37:36.957Z,88.57
2018-02-03T06:38:46.755Z,88.57
2018-02-03T06:39:56.800Z,88.29
2018-02-03T06:41:06.859Z,88.67
2018-02-03T06:42:16.909Z,88.57
2018-02-03T06:43:26.951Z,88.76
2018-02-03T06:44:36.742Z,88.76
2018-02-03T06:45:46.783Z,88.86
2018-02-03T06:46:56.838Z,88.76
2018-02-03T06:48:06.896Z,88.76
2018-02-03T06:49:16.951Z,88.95
2018-02-03T06:50:26.996Z,88.9
2018-02-03T06:51:37.047Z,88.86
2018-02-03T06:52:46.630Z,88.81
2018-02-03T06:53:56.417Z,88.81
2018-02-03T06:55:06.208Z,88.71
2018-02-03T06:56:15.984Z,88.62
2018-02-03T06:57:26.026Z,88.62
2018-02-03T06:58:35.866Z,88.43
2018-02-03T06:59:45.931Z,88.62
2018-02-03T07:00:55.801Z,88.62
2018-02-03T07:02:05.599Z,88.81
2018-02-03T07:03:15.633Z,88.81
2018-02-03T07:04:25.736Z,88.53
2018-02-03T07:05:35.781Z,88.62
2018-02-03T07:06:45.821Z,88.34
2018-02-03T07:07:55.868Z,88.71
2018-02-03T07:09:05.911Z,88.53
2018-02-03T07:10:16.007Z,88.71
2018-02-03T07:11:26.044Z,88.15
2018-02-03T07:12:36.071Z,88.15
2018-02-03T07:13:45.845Z,88.43
2018-02-03T07:14:55.900Z,88.53
2018-02-03T07:16:05.990Z,88.09
2018-02-03T07:17:15.527Z,88.28
2018-02-03T07:18:25.320Z,88.38
2018-02-03T07:19:35.105Z,88
2018-02-03T07:20:44.901Z,88.28
2018-02-03T07:21:54.937Z,88.28
2018-02-03T07:23:04.739Z,88.38
2018-02-03T07:24:14.525Z,88.47
2018-02-03T07:25:24.326Z,87.81
2018-02-03T07:26:34.385Z,87.9
2018-02-03T07:27:44.484Z,88
2018-02-03T07:28:54.264Z,88.19
2018-02-03T07:30:04.315Z,88.09
2018-02-03T07:31:14.391Z,88
2018-02-03T07:32:24.193Z,88.09
2018-02-03T07:33:34.292Z,88.04
2018-02-03T07:34:44.343Z,88
2018-02-03T07:35:54.131Z,87.66
2018-02-03T07:37:04.187Z,87.62
2018-02-03T07:38:14.242Z,87.52
2018-02-03T07:39:24.020Z,87.85
2018-02-03T07:40:34.277Z,87.85
2018-02-03T07:41:44.053Z,87.95
2018-02-03T07:42:54.101Z,87.85
2018-02-03T07:44:03.894Z,87.85
2018-02-03T07:45:13.988Z,87.85
2018-02-03T07:46:24.034Z,87.95
2018-02-03T07:47:33.547Z,87.85
2018-02-03T07:48:43.602Z,87.76
2018-02-03T07:49:53.382Z,88.23
2018-02-03T07:51:03.479Z,87.95
2018-02-03T07:52:13.539Z,88.04
2018-02-03T07:53:23.601Z,88.13
2018-02-03T07:54:33.658Z,87.66
2018-02-03T07:55:43.449Z,87.85
2018-02-03T07:56:53.306Z,87.66
2018-02-03T07:58:03.087Z,87.85
2018-02-03T07:59:12.885Z,87.85
2018-02-03T08:00:22.670Z,87.85
2018-02-03T08:01:32.711Z,87.66
2018-02-03T08:02:42.765Z,87.66
2018-02-03T08:03:52.811Z,87.66
2018-02-03T08:05:02.591Z,87.47
2018-02-03T08:06:12.370Z,87.47
2018-02-03T08:07:22.441Z,87.47
2018-02-03T08:08:31.979Z,87.85
2018-02-03T08:09:41.782Z,87.85
2018-02-03T08:10:51.828Z,87.57
2018-02-03T08:12:01.609Z,87.57
2018-02-03T08:13:11.673Z,87.85
2018-02-03T08:14:21.466Z,87.57
2018-02-03T08:15:31.599Z,87.38
2018-02-03T08:16:41.402Z,87.28
2018-02-03T08:17:51.204Z,87.28
2018-02-03T08:19:01.259Z,87.28
2018-02-03T08:20:11.311Z,87.57
2018-02-03T08:21:21.360Z,87.57
2018-02-03T08:22:31.160Z,87.76
2018-02-03T08:23:40.971Z,87.57
2018-02-03T08:24:50.764Z,87.85
2018-02-03T08:26:00.560Z,87.57
2018-02-03T08:27:10.609Z,87.76
2018-02-03T08:28:20.650Z,87.95
2018-02-03T08:29:30.708Z,87.66
2018-02-03T08:30:40.507Z,87.76
2018-02-03T08:31:50.289Z,87.66
2018-02-03T08:33:00.373Z,87.95
2018-02-03T08:34:10.409Z,87.8
2018-02-03T08:35:20.457Z,87.71
2018-02-03T08:36:30.231Z,87.61
2018-02-03T08:37:40.262Z,87.71
2018-02-03T08:38:50.595Z,87.8
2018-02-03T08:40:00.641Z,87.99
2018-02-03T08:41:10.704Z,87.32
2018-02-03T08:42:20.754Z,87.61
2018-02-03T08:43:30.878Z,87.42
2018-02-03T08:44:40.917Z,87.32
2018-02-03T08:45:50.962Z,87.52
2018-02-03T08:47:00.768Z,87.56
2018-02-03T08:48:10.814Z,87.37
2018-02-03T08:49:20.876Z,87.18
2018-02-03T08:50:30.930Z,87.65
2018-02-03T08:51:41.057Z,87.18
2018-02-03T08:52:50.577Z,87.65
2018-02-03T08:54:00.634Z,87.56
2018-02-03T08:55:10.679Z,87.46
2018-02-03T08:56:20.720Z,87.37
2018-02-03T08:57:30.788Z,86.9
2018-02-03T08:58:40.831Z,86.99
2018-02-03T08:59:50.892Z,87.08
2018-02-03T09:01:00.678Z,87.18
2018-02-03T09:02:10.760Z,87.08
2018-02-03T09:03:20.810Z,87.08
2018-02-03T09:04:30.603Z,87.08
2018-02-03T09:05:40.671Z,87.65
2018-02-03T09:06:50.506Z,87.75
2018-02-03T09:08:00.364Z,87.08
2018-02-03T09:09:10.415Z,87.08
2018-02-03T09:10:20.466Z,87.18
2018-02-03T09:11:30.517Z,87.18
2018-02-03T09:12:40.584Z,87.6
2018-02-03T09:13:50.622Z,87.51
2018-02-03T09:15:00.414Z,86.7
2018-02-03T09:16:10.487Z,86.75
2018-02-03T09:17:20.547Z,87.03
2018-02-03T09:18:30.079Z,86.84
2018-02-03T09:19:40.113Z,86.94
2018-02-03T09:20:50.163Z,86.94
2018-02-03T09:22:00.249Z,87.03
2018-02-03T09:23:10.024Z,87.23
2018-02-03T09:24:20.142Z,87.51
2018-02-03T09:25:30.267Z,87.7
2018-02-03T09:26:40.308Z,87.7
2018-02-03T09:27:50.353Z,87.13
2018-02-03T09:29:00.392Z,87.23
2018-02-03T09:30:10.187Z,87.23
2018-02-03T09:31:20.223Z,87.03
2018-02-03T09:32:30.304Z,87.03
2018-02-03T09:33:40.355Z,87.03
2018-02-03T09:34:50.145Z,87.7
2018-02-03T09:36:00.203Z,87.51
2018-02-03T09:37:10.004Z,87.32
2018-02-03T09:38:20.056Z,87.41
2018-02-03T09:39:29.851Z,87.41
2018-02-03T09:40:39.901Z,87.37
2018-02-03T09:41:49.675Z,87.08
2018-02-03T09:42:59.736Z,87.37
2018-02-03T09:44:09.585Z,87.75
2018-02-03T09:45:19.651Z,87.94
2018-02-03T09:46:29.714Z,87.94
2018-02-03T09:47:39.765Z,87.56
2018-02-03T09:48:49.554Z,87.46
2018-02-03T09:49:59.618Z,87.32
2018-02-03T09:51:09.405Z,87.32
2018-02-03T09:52:19.467Z,87.41
2018-02-03T09:53:29.542Z,87.41
2018-02-03T09:54:39.599Z,87.7
2018-02-03T09:55:49.651Z,87.98
2018-02-03T09:56:59.700Z,87.75
2018-02-03T09:58:09.753Z,87.94
2018-02-03T09:59:19.824Z,87.56
2018-02-03T10:00:29.597Z,87.75
2018-02-03T10:01:39.651Z,87.65
2018-02-03T10:02:49.770Z,87.65
2018-02-03T10:03:59.831Z,87.37
2018-02-03T10:05:09.639Z,88.04
2018-02-03T10:06:19.438Z,87.75
2018-02-03T10:07:29.230Z,87.65
2018-02-03T10:08:39.012Z,87.56
2018-02-03T10:09:48.807Z,87.46
2018-02-03T10:10:58.851Z,87.56
2018-02-03T10:12:08.896Z,87.65
2018-02-03T10:13:18.701Z,87.85
2018-02-03T10:14:28.763Z,87.94
2018-02-03T10:15:38.823Z,87.94
2018-02-03T10:16:48.888Z,87.75
2018-02-03T10:17:58.947Z,87.75
2018-02-03T10:19:08.792Z,87.85
2018-02-03T10:20:18.833Z,87.75
2018-02-03T10:21:28.935Z,87.94
2018-02-03T10:22:38.781Z,87.75
2018-02-03T10:23:48.575Z,87.46
2018-02-03T10:24:58.374Z,87.37
2018-02-03T10:26:08.438Z,87.56
2018-02-03T10:27:18.496Z,87.56
2018-02-03T10:28:28.603Z,87.41
2018-02-03T10:29:38.394Z,87.37
2018-02-03T10:30:48.430Z,87.46
2018-02-03T10:31:58.475Z,87.65
2018-02-03T10:33:08.625Z,87.37
2018-02-03T10:34:18.672Z,87.46
2018-02-03T10:35:28.202Z,87.37
2018-02-03T10:36:38.256Z,87.08
2018-02-03T10:37:47.812Z,87.37
2018-02-03T10:38:57.901Z,87.27
2018-02-03T10:40:07.994Z,87.27
2018-02-03T10:41:18.040Z,87.56
2018-02-03T10:42:28.091Z,87.56
2018-02-03T10:43:37.897Z,87.37
2018-02-03T10:44:47.983Z,87.46
2018-02-03T10:45:58.029Z,87.37
2018-02-03T10:47:08.074Z,87.46
2018-02-03T10:48:18.135Z,87.27
2018-02-03T10:49:28.177Z,87.46
2018-02-03T10:50:38.253Z,87.46
2018-02-03T10:51:48.301Z,87.37
2018-02-03T10:52:57.833Z,87.56
2018-02-03T10:54:07.867Z,87.46
2018-02-03T10:55:17.650Z,87.46
2018-02-03T10:56:27.707Z,87.37
2018-02-03T10:57:37.815Z,87.08
2018-02-03T10:58:47.625Z,87.37
2018-02-03T10:59:57.418Z,88.04
2018-02-03T11:01:07.466Z,87.65
2018-02-03T11:02:16.988Z,87.08
2018-02-03T11:03:26.782Z,87.65
2018-02-03T11:04:36.834Z,87.94
2018-02-03T11:05:46.878Z,87.56
2018-02-03T11:06:56.937Z,87.18
2018-02-03T11:08:06.730Z,87.94
2018-02-03T11:09:16.817Z,87.94
2018-02-03T11:10:26.879Z,87.94
2018-02-03T11:11:36.918Z,87.94
2018-02-03T11:12:46.444Z,87.94
2018-02-03T11:13:56.252Z,87.9
2018-02-03T11:15:06.365Z,87.75
2018-02-03T11:16:16.464Z,87.71
2018-02-03T11:17:26.250Z,87.8
2018-02-03T11:18:36.310Z,87.99
2018-02-03T11:19:46.102Z,87.8
2018-02-03T11:20:56.269Z,87.71
2018-02-03T11:22:06.055Z,87.9
2018-02-03T11:23:16.111Z,87.99
2018-02-03T11:24:26.945Z,87.75
2018-02-03T11:25:37.021Z,87.65
2018-02-03T11:26:46.864Z,87.46
2018-02-03T11:27:56.901Z,87.65
2018-02-03T11:29:06.962Z,87.37
2018-02-03T11:30:17.013Z,87.08
2018-02-03T11:31:27.076Z,87.65
2018-02-03T11:32:36.892Z,87.85
2018-02-03T11:33:46.994Z,87.94
2018-02-03T11:34:56.800Z,87.27
2018-02-03T11:36:06.627Z,87.85
2018-02-03T11:37:16.404Z,87.27
2018-02-03T11:38:26.198Z,87.65
2018-02-03T11:39:36.249Z,87.56
2018-02-03T11:40:46.299Z,87.75
2018-02-03T11:41:56.340Z,87.65
2018-02-03T11:43:06.412Z,87.37
2018-02-03T11:44:16.463Z,87.46
2018-02-03T11:45:26.271Z,87.56
2018-02-03T11:46:36.341Z,87.37
2018-02-03T11:47:46.458Z,87.37
2018-02-03T11:48:56.512Z,87.56
2018-02-03T11:50:06.327Z,87.37
2018-02-03T11:51:16.387Z,87.27
2018-02-03T11:52:25.918Z,87.08
2018-02-03T11:53:35.712Z,87.37
2018-02-03T11:54:45.564Z,87.27
2018-02-03T11:55:55.627Z,87.46
2018-02-03T11:57:05.701Z,87.27
2018-02-03T11:58:15.505Z,87.65
2018-02-03T11:59:25.288Z,87.94
2018-02-03T12:00:35.349Z,87.85
2018-02-03T12:01:45.146Z,87.27
2018-02-03T12:02:54.948Z,87.27
2018-02-03T12:04:04.769Z,87.37
2018-02-03T12:05:14.829Z,87.37
2018-02-03T12:06:24.630Z,87.37
2018-02-03T12:07:34.415Z,87.37
2018-02-03T12:08:44.483Z,87.56
2018-02-03T12:09:54.290Z,87.27
2018-02-03T12:11:04.072Z,87.27
2018-02-03T12:12:14.159Z,87.27
2018-02-03T12:13:24.213Z,87.27
2018-02-03T12:14:34.285Z,87.46
2018-02-03T12:15:44.348Z,87.27
2018-02-03T12:16:54.142Z,87.27
2018-02-03T12:18:04.180Z,87.27
2018-02-03T12:19:14.245Z,87.46
2018-02-03T12:20:24.315Z,87.46
2018-02-03T12:21:34.366Z,87.52
2018-02-03T12:22:44.419Z,87.52
2018-02-03T12:23:54.489Z,87.04
2018-02-03T12:25:04.273Z,87.27
2018-02-03T12:26:14.076Z,87.23
2018-02-03T12:27:24.165Z,87.42
2018-02-03T12:28:34.207Z,87.71
2018-02-03T12:29:44.260Z,87.42
2018-02-03T12:30:54.319Z,87.27
2018-02-03T12:32:04.387Z,87.27
2018-02-03T12:33:14.183Z,87.27
2018-02-03T12:34:24.225Z,87.27
2018-02-03T12:35:34.296Z,87.65
2018-02-03T12:36:44.357Z,87.56
2018-02-03T12:37:54.161Z,87.94
2018-02-03T12:39:04.214Z,87.75
2018-02-03T12:40:14.288Z,87.71
2018-02-03T12:41:24.340Z,87.94
2018-02-03T12:42:34.389Z,87.94
2018-02-03T12:43:44.874Z,87.9
2018-02-03T12:44:54.945Z,87.8
2018-02-03T12:46:04.988Z,87.65
2018-02-03T12:47:15.046Z,87.71
2018-02-03T12:48:25.127Z,87.9
2018-02-03T12:49:35.188Z,87.71
2018-02-03T12:50:44.995Z,87.75
2018-02-03T12:51:55.057Z,87.71
2018-02-03T12:53:05.153Z,87.61
2018-02-03T12:54:14.675Z,87.71
2018-02-03T12:55:24.765Z,87.85
2018-02-03T12:56:34.624Z,87.85
2018-02-03T12:57:44.681Z,87.75
2018-02-03T12:58:54.462Z,87.8
2018-02-03T13:00:04.273Z,87.8
2018-02-03T13:01:14.307Z,87.8
2018-02-03T13:02:24.095Z,87.94
2018-02-03T13:03:34.149Z,87.8
2018-02-03T13:04:44.199Z,87.9
2018-02-03T13:05:54.050Z,87.8
2018-02-03T13:07:03.832Z,87.71
2018-02-03T13:08:13.633Z,87.8
2018-02-03T13:09:23.690Z,87.61
2018-02-03T13:10:33.744Z,87.8
2018-02-03T13:11:43.795Z,87.8
2018-02-03T13:12:53.848Z,87.61
2018-02-03T13:14:03.889Z,87.61
2018-02-03T13:15:13.666Z,87.61
2018-02-03T13:16:24.266Z,88.18
2018-02-03T13:17:34.344Z,87.99
2018-02-03T13:18:44.168Z,87.9
2018-02-03T13:19:54.025Z,87.9
2018-02-03T13:21:04.090Z,87.99
2018-02-03T13:22:14.146Z,87.9
2018-02-03T13:23:24.210Z,87.9
2018-02-03T13:24:34.004Z,87.99
2018-02-03T13:25:43.592Z,87.9
2018-02-03T13:26:53.765Z,87.9
2018-02-03T13:28:03.541Z,88.09
2018-02-03T13:29:13.338Z,87.8
2018-02-03T13:30:23.417Z,88.18
2018-02-03T13:31:33.471Z,87.9
2018-02-03T13:32:43.270Z,87.9
2018-02-03T13:33:53.058Z,87.99
2018-02-03T13:35:02.859Z,87.9
2018-02-03T13:36:12.923Z,87.9
2018-02-03T13:37:22.718Z,87.99
2018-02-03T13:38:32.516Z,87.9
2018-02-03T13:39:42.555Z,88.09
2018-02-03T13:40:52.681Z,87.9
2018-02-03T13:42:02.498Z,87.9
2018-02-03T13:43:12.299Z,87.9
2018-02-03T13:44:22.373Z,87.71
2018-02-03T13:45:32.489Z,87.71
2018-02-03T13:46:42.540Z,87.61
2018-02-03T13:47:52.616Z,87.9
2018-02-03T13:49:02.655Z,88.09
2018-02-03T13:50:12.711Z,88.37
2018-02-03T13:51:22.761Z,88.28
2018-02-03T13:52:32.821Z,88.37
2018-02-03T13:53:42.879Z,88.37
2018-02-03T13:54:52.417Z,88.18
2018-02-03T13:56:02.214Z,87.9
2018-02-03T13:57:12.251Z,88.18
2018-02-03T13:58:22.062Z,88.13
2018-02-03T13:59:32.264Z,88.09
2018-02-03T14:00:42.062Z,88.09
2018-02-03T14:01:51.868Z,88.13
2018-02-03T14:03:01.389Z,88.04
2018-02-03T14:04:11.190Z,88.28
2018-02-03T14:05:20.987Z,87.85
2018-02-03T14:06:30.854Z,88.13
2018-02-03T14:07:40.898Z,88.33
2018-02-03T14:08:50.689Z,87.95
2018-02-03T14:10:00.760Z,87.95
2018-02-03T14:11:10.830Z,87.85
2018-02-03T14:12:20.875Z,88.13
2018-02-03T14:13:30.955Z,88.52
2018-02-03T14:14:40.493Z,88.61
2018-02-03T14:15:50.293Z,88.13
2018-02-03T14:17:00.083Z,88.33
2018-02-03T14:18:10.141Z,88.71
2018-02-03T14:19:20.203Z,88.52
2018-02-03T14:20:30.282Z,87.85
2018-02-03T14:21:40.341Z,88.04
2018-02-03T14:22:50.393Z,88.52
2018-02-03T14:24:00.526Z,88.13
2018-02-03T14:25:10.317Z,88.13
2018-02-03T14:26:20.116Z,88.52
2018-02-03T14:27:30.183Z,88.52
2018-02-03T14:28:39.994Z,88.71
2018-02-03T14:29:50.111Z,88.33
2018-02-03T14:31:00.230Z,88.33
2018-02-03T14:32:10.262Z,88.23
2018-02-03T14:33:20.298Z,88.42
2018-02-03T14:34:30.371Z,88.33
2018-02-03T14:35:40.454Z,88.33
2018-02-03T14:36:50.499Z,88.33
2018-02-03T14:38:00.541Z,88.33
2018-02-03T14:39:10.598Z,88.04
2018-02-03T14:40:20.662Z,88.04
2018-02-03T14:41:30.724Z,88.23
2018-02-03T14:42:40.509Z,88.33
2018-02-03T14:43:50.312Z,88.33
2018-02-03T14:45:00.362Z,88.52
2018-02-03T14:46:09.934Z,88.23
2018-02-03T14:47:20.013Z,88.04
2018-02-03T14:48:30.079Z,88.61
2018-02-03T14:49:39.875Z,88.33
2018-02-03T14:50:49.699Z,88.33
2018-02-03T14:51:59.753Z,88.23
2018-02-03T14:53:09.817Z,88.33
2018-02-03T14:54:19.877Z,88.33
2018-02-03T14:55:29.939Z,88.33
2018-02-03T14:56:39.990Z,88.42
2018-02-03T14:57:50.056Z,88.42
2018-02-03T14:59:00.123Z,88.61
2018-02-03T15:00:10.186Z,88.71
2018-02-03T15:01:20.002Z,88.52
2018-02-03T15:02:29.814Z,88.61
2018-02-03T15:03:39.371Z,88.61
2018-02-03T15:04:49.191Z,88.71
2018-02-03T15:05:58.990Z,88.71
2018-02-03T15:07:09.069Z,88.71
2018-02-03T15:08:19.142Z,88.71
2018-02-03T15:09:29.264Z,88.71
2018-02-03T15:10:39.044Z,88.52
2018-02-03T15:11:49.099Z,88.8
2018-02-03T15:12:59.178Z,88.67
2018-02-03T15:14:09.222Z,89.14
2018-02-03T15:15:19.282Z,89.14
2018-02-03T15:16:29.355Z,88.95
2018-02-03T15:17:39.442Z,88.9
2018-02-03T15:18:49.578Z,89.04
2018-02-03T15:19:59.633Z,89
2018-02-03T15:21:09.442Z,88.85
2018-02-03T15:22:19.269Z,88.9
2018-02-03T15:23:29.342Z,88.85
2018-02-03T15:24:39.457Z,89.04
2018-02-03T15:25:49.518Z,88.95
2018-02-03T15:26:59.374Z,89.04
2018-02-03T15:28:09.446Z,88.85
2018-02-03T15:29:19.492Z,89.14
2018-02-03T15:30:29.276Z,88.85
2018-02-03T15:31:39.334Z,88.85
2018-02-03T15:32:49.406Z,88.67
2018-02-03T15:33:59.441Z,88.67
2018-02-03T15:35:09.508Z,88.38
2018-02-03T15:36:19.590Z,88.47
2018-02-03T15:37:29.662Z,88.47